Martell, Nebraska
Current Conditions -  °F | °C
As of 7:01 AM on Thursday 18 Dec 2014 (Local Time) from KLNK Reporting Station
Light Snow Light Snow  
Wind Chill: 26°   Ceiling: 6000
Heat Index: 26°   Visibility: 3mi
Dew Point: 24°   Wind: 3mph
Humidity: 92%   Direction: 110°ESE
Pressure: 30.23"   Gusts: NA
Location:  40.64°N, 96.76°W
Report Text: KLNK 181301Z 11003KT 3SM -SN BR FEW007 OVC060 M03/M04 A3023 RMK AO2 P0000 T10331044
Loading
Personal Weather Stations






























Interactive Weather Map New forecast layout! Learn more

10-Day Weather Forecast

Advertisements
Track Severe Weather on mobile